createdAt,value
2019-01-08T00:04:03.968Z,100964.52
2019-01-08T00:09:26.227Z,100946.17
2019-01-08T00:14:48.381Z,100579.56
2019-01-08T00:20:10.568Z,100693.03
2019-01-08T00:25:32.749Z,100949.94
2019-01-08T00:30:54.935Z,100930.08
2019-01-08T00:36:17.167Z,100918.92
2019-01-08T00:41:39.338Z,100637.33
2019-01-08T00:47:01.526Z,100905.30
2019-01-08T00:52:16.715Z,100909.55
2019-01-08T00:57:38.926Z,100903.62
2019-01-08T01:03:01.101Z,100725.06
2019-01-08T01:08:23.277Z,100887.62
2019-01-08T01:13:45.454Z,100866.06
2019-01-08T01:19:07.632Z,100863.83
2019-01-08T01:24:29.812Z,100857.83
2019-01-08T01:29:32.501Z,100860.48
2019-01-08T01:34:54.700Z,100841.69
2019-01-08T01:40:16.875Z,100532.77
2019-01-08T01:45:39.057Z,100732.68
2019-01-08T01:51:01.269Z,100831.37
2019-01-08T01:56:23.460Z,100781.85
2019-01-08T02:01:45.655Z,100818.52
2019-01-08T02:07:07.841Z,100553.33
2019-01-08T02:12:30.032Z,100806.47
2019-01-08T02:17:52.225Z,100814.25
2019-01-08T02:23:14.400Z,100622.38
2019-01-08T02:28:17.057Z,100544.47
2019-01-08T02:33:39.320Z,100769.08
2019-01-08T02:39:01.531Z,100600.19
2019-01-08T02:44:23.753Z,100755.87
2019-01-08T02:49:45.925Z,100758.05
2019-01-08T02:55:01.703Z,100714.47
2019-01-08T03:00:23.867Z,100300.70
2019-01-08T03:05:26.539Z,100704.75
2019-01-08T03:10:48.715Z,100685.77
2019-01-08T03:16:10.898Z,100675.33
2019-01-08T03:21:33.101Z,100655.03
2019-01-08T03:26:55.317Z,100652.61
2019-01-08T03:32:17.515Z,100657.30
2019-01-08T03:37:39.691Z,100599.14
2019-01-08T03:43:01.918Z,100597.16
2019-01-08T03:48:31.050Z,100573.30
2019-01-08T03:53:45.916Z,100559.03
2019-01-08T03:59:08.138Z,100182.70
2019-01-08T04:04:30.350Z,100577.08
2019-01-08T04:09:52.539Z,100564.50
2019-01-08T04:15:14.726Z,100563.61
2019-01-08T04:20:36.922Z,100544.72
2019-01-08T04:25:59.175Z,100540.45
2019-01-08T04:31:21.363Z,100539.20
2019-01-08T04:36:43.550Z,100208.31
2019-01-08T04:42:05.758Z,100483.92
2019-01-08T04:47:27.933Z,100469.19
2019-01-08T04:52:43.062Z,100110.48
2019-01-08T04:58:05.239Z,100472.94
2019-01-08T05:03:27.436Z,100442.41
2019-01-08T05:08:49.645Z,100403.58
2019-01-08T05:14:11.880Z,100415.56
2019-01-08T05:19:34.632Z,100412.91
2019-01-08T05:24:56.812Z,100384.11
2019-01-08T05:30:19.006Z,100373.30
2019-01-08T05:35:41.218Z,100391.55
2019-01-08T05:41:03.430Z,100367.31
2019-01-08T05:46:25.652Z,100382.32
2019-01-08T05:51:41.316Z,100346.01
2019-01-08T05:56:44.098Z,100345.52
2019-01-08T06:02:06.289Z,100344.16
2019-01-08T06:07:28.476Z,100337.16
2019-01-08T06:12:31.164Z,100349.48
2019-01-08T06:17:53.337Z,100319.59
2019-01-08T06:23:15.560Z,100323.41
2019-01-08T06:28:37.989Z,100309.73
2019-01-08T06:34:00.183Z,100291.03
2019-01-08T06:39:04.182Z,100126.22
2019-01-08T06:44:06.882Z,100278.05
2019-01-08T06:49:09.573Z,100285.00
2019-01-08T06:54:24.800Z,100286.46
2019-01-08T06:59:47.010Z,100221.74
2019-01-08T07:05:09.242Z,100277.63
2019-01-08T07:10:31.509Z,100265.73
2019-01-08T07:15:53.804Z,100276.38
2019-01-08T07:21:16.615Z,100208.92
2019-01-08T07:26:39.100Z,100246.69
2019-01-08T07:32:01.433Z,100263.20
2019-01-08T07:37:23.736Z,100258.59
2019-01-08T07:42:45.905Z,100105.21
2019-01-08T07:48:08.085Z,100238.12
2019-01-08T07:53:22.980Z,100215.30
2019-01-08T07:58:45.157Z,100214.10
2019-01-08T08:04:07.326Z,100209.28
2019-01-08T08:09:29.518Z,99954.33
2019-01-08T08:14:51.716Z,100164.72
2019-01-08T08:20:13.918Z,100161.23
2019-01-08T08:25:36.111Z,99939.69
2019-01-08T08:30:59.116Z,100160.69
2019-01-08T08:36:02.914Z,100169.96
2019-01-08T08:41:25.091Z,100140.11
2019-01-08T08:46:47.262Z,99962.60
2019-01-08T08:52:02.579Z,100026.67
2019-01-08T08:57:24.754Z,100147.08
2019-01-08T09:02:46.921Z,100135.84
2019-01-08T09:08:09.107Z,100096.34
2019-01-08T09:13:31.285Z,99774.35
2019-01-08T09:18:53.457Z,100129.16
2019-01-08T09:24:15.646Z,100140.58
2019-01-08T09:29:37.827Z,100133.64
2019-01-08T09:35:00.173Z,100166.40
2019-01-08T09:40:22.450Z,100149.80
2019-01-08T09:45:44.635Z,100163.81
2019-01-08T09:51:06.817Z,100159.28
2019-01-08T09:56:21.678Z,100146.52
2019-01-08T10:01:43.850Z,99917.94
2019-01-08T10:07:06.034Z,100146.67
2019-01-08T10:12:28.214Z,99979.95
2019-01-08T10:17:50.405Z,100155.06
2019-01-08T10:23:12.596Z,99969.99
2019-01-08T10:28:34.785Z,100170.29
2019-01-08T10:33:56.976Z,100150.52
2019-01-08T10:39:19.166Z,100143.55
2019-01-08T10:44:41.343Z,100032.14
2019-01-08T10:50:03.721Z,100133.34
2019-01-08T10:55:18.841Z,100130.28
2019-01-08T11:00:41.039Z,100113.55
2019-01-08T11:06:03.275Z,99777.17
2019-01-08T11:11:25.457Z,100128.56
2019-01-08T11:16:47.684Z,100130.92
2019-01-08T11:22:09.868Z,100149.55
2019-01-08T11:27:32.072Z,100188.67
2019-01-08T11:32:54.873Z,100169.86
2019-01-08T11:38:18.352Z,100167.22
2019-01-08T11:43:40.552Z,100185.50
2019-01-08T11:49:02.997Z,99833.36
2019-01-08T11:54:17.970Z,99809.45
2019-01-08T11:59:40.142Z,100191.78
2019-01-08T12:05:02.452Z,100171.59
2019-01-08T12:10:25.398Z,100187.78
2019-01-08T12:15:47.578Z,100167.75
2019-01-08T12:21:09.755Z,100161.53
2019-01-08T12:26:32.148Z,100179.23
2019-01-08T12:31:55.807Z,100179.28
2019-01-08T12:37:18.411Z,100152.01
2019-01-08T12:42:40.602Z,99924.77
2019-01-08T12:48:02.791Z,100136.55
2019-01-08T12:53:17.628Z,100129.06
2019-01-08T12:58:39.820Z,100208.55
2019-01-08T13:04:02.028Z,100186.50
2019-01-08T13:09:24.227Z,100005.84
2019-01-08T13:14:46.419Z,100175.92
2019-01-08T13:20:08.609Z,99896.86
2019-01-08T13:25:30.798Z,100186.16
2019-01-08T13:31:14.393Z,100178.75
2019-01-08T13:36:36.565Z,99810.09
2019-01-08T13:41:58.745Z,100165.81
2019-01-08T13:47:20.930Z,100175.23
2019-01-08T13:52:35.752Z,99897.98
2019-01-08T13:57:52.251Z,100163.63
2019-01-08T14:03:14.620Z,100198.80
2019-01-08T14:08:36.803Z,100170.32
2019-01-08T14:13:58.994Z,100170.07
2019-01-08T14:19:21.174Z,100181.83
2019-01-08T14:24:43.354Z,100156.66
2019-01-08T14:30:06.569Z,100181.12
2019-01-08T14:35:28.763Z,100180.04
2019-01-08T14:40:50.939Z,100193.88
2019-01-08T14:46:13.126Z,100215.12
2019-01-08T14:51:35.342Z,99810.16
2019-01-08T14:56:50.611Z,100225.15
2019-01-08T15:02:12.774Z,100216.63
2019-01-08T15:07:34.952Z,100224.44
2019-01-08T15:12:57.151Z,100214.73
2019-01-08T15:18:19.355Z,100237.48
2019-01-08T15:23:41.542Z,100221.73
2019-01-08T15:29:03.765Z,99921.62
2019-01-08T15:34:25.986Z,100213.59
2019-01-08T15:39:48.169Z,100247.79
2019-01-08T15:45:10.471Z,100223.09
2019-01-08T15:50:32.745Z,100250.61
2019-01-08T15:55:48.439Z,100225.81
2019-01-08T16:01:10.626Z,100219.52
2019-01-08T16:06:32.812Z,100226.28
2019-01-08T16:11:55.005Z,100230.85
2019-01-08T16:17:17.199Z,100241.27
2019-01-08T16:22:39.485Z,100234.86
2019-01-08T16:28:01.785Z,100257.31
2019-01-08T16:33:23.960Z,100290.98
2019-01-08T16:38:26.656Z,100272.89
2019-01-08T16:43:48.838Z,100282.95
2019-01-08T16:49:11.114Z,100038.94
2019-01-08T16:54:26.315Z,100307.12
2019-01-08T16:59:48.493Z,100341.67
2019-01-08T17:05:10.688Z,100319.31
2019-01-08T17:10:32.868Z,100329.02
2019-01-08T17:15:55.080Z,100295.03
2019-01-08T17:21:17.265Z,100344.77
2019-01-08T17:26:39.597Z,100051.14
2019-01-08T17:31:42.297Z,100353.42
2019-01-08T17:37:04.482Z,100357.17
2019-01-08T17:42:26.673Z,100365.47
2019-01-08T17:47:48.872Z,100367.73
2019-01-08T17:53:04.566Z,100358.63
2019-01-08T17:58:31.064Z,100373.05
2019-01-08T18:03:53.305Z,100387.59
2019-01-08T18:09:15.492Z,100372.81
2019-01-08T18:14:37.729Z,100110.31
2019-01-08T18:19:59.946Z,100391.89
2019-01-08T18:25:22.339Z,100360.87
2019-01-08T18:30:44.545Z,100369.91
2019-01-08T18:36:28.120Z,100377.91
2019-01-08T18:41:50.325Z,100146.98
2019-01-08T18:46:53.009Z,100401.67
2019-01-08T18:52:08.576Z,100390.50
2019-01-08T18:57:30.752Z,100397.34
2019-01-08T19:02:52.940Z,100389.03
2019-01-08T19:08:15.185Z,100404.76
2019-01-08T19:13:37.379Z,100396.69
2019-01-08T19:18:59.583Z,100417.58
2019-01-08T19:24:21.997Z,100433.17
2019-01-08T19:29:44.274Z,100400.44
2019-01-08T19:34:47.795Z,100411.99
2019-01-08T19:40:09.992Z,100411.13
2019-01-08T19:45:32.172Z,100435.98
2019-01-08T19:50:54.353Z,100416.30
2019-01-08T19:56:09.220Z,100076.66
2019-01-08T20:01:31.411Z,100303.84
2019-01-08T20:06:53.611Z,100423.39
2019-01-08T20:12:15.818Z,100431.36
2019-01-08T20:17:38.181Z,100457.84
2019-01-08T20:23:00.516Z,100339.58
2019-01-08T20:28:03.196Z,100470.39
2019-01-08T20:33:25.416Z,100500.40
2019-01-08T20:38:47.612Z,100482.36
2019-01-08T20:44:09.798Z,100510.84
2019-01-08T20:49:31.984Z,100512.39
2019-01-08T20:54:47.757Z,100504.77
2019-01-08T21:00:09.949Z,100494.66
2019-01-08T21:05:32.124Z,100493.12
2019-01-08T21:10:54.309Z,100506.73
2019-01-08T21:16:16.506Z,100253.38
2019-01-08T21:21:38.689Z,100487.76
2019-01-08T21:27:00.875Z,100498.92
2019-01-08T21:32:23.059Z,100504.30
2019-01-08T21:37:45.863Z,100497.41
2019-01-08T21:43:09.333Z,100507.22
2019-01-08T21:48:12.170Z,100350.38
2019-01-08T21:53:27.725Z,100528.98
2019-01-08T21:58:50.119Z,100532.22
2019-01-08T22:04:12.306Z,100550.58
2019-01-08T22:09:34.484Z,100545.50
2019-01-08T22:14:37.185Z,100229.11
2019-01-08T22:19:39.978Z,100535.17
2019-01-08T22:25:02.190Z,100539.95
2019-01-08T22:30:24.367Z,100543.84
2019-01-08T22:35:46.562Z,100544.30
2019-01-08T22:41:08.744Z,100531.74
2019-01-08T22:46:30.931Z,100529.50
2019-01-08T22:51:53.119Z,100070.41
2019-01-08T22:57:15.288Z,100537.63
2019-01-08T23:02:18.655Z,100523.06
2019-01-08T23:07:40.981Z,100520.41
2019-01-08T23:13:03.277Z,100242.53
2019-01-08T23:18:26.892Z,100540.77
2019-01-08T23:23:49.405Z,100253.09
2019-01-08T23:29:11.686Z,100518.61
2019-01-08T23:34:34.002Z,100577.86
2019-01-08T23:39:56.408Z,100548.38
2019-01-08T23:45:19.395Z,100268.53
2019-01-08T23:50:41.900Z,100523.19
2019-01-08T23:56:02.071Z,100569.44
